createdAt,value
2022-10-19T00:01:32.326Z,74.32
2022-10-19T00:06:40.821Z,74.07
2022-10-19T00:11:49.905Z,74.12
2022-10-19T00:16:58.529Z,74.51
2022-10-19T00:22:08.122Z,74.34
2022-10-19T00:27:16.826Z,74.64
2022-10-19T00:32:24.809Z,74.87
2022-10-19T00:37:33.040Z,74.66
2022-10-19T00:42:40.093Z,74.93
2022-10-19T00:47:49.223Z,75.04
2022-10-19T00:52:57.448Z,74.90
2022-10-19T00:58:06.703Z,75.17
2022-10-19T01:03:16.029Z,75.40
2022-10-19T01:08:23.971Z,75.06
2022-10-19T01:13:46.770Z,75.46
2022-10-19T01:19:01.347Z,75.33
2022-10-19T01:24:52.110Z,75.31
2022-10-19T01:30:07.436Z,75.42
2022-10-19T01:35:23.204Z,75.34
2022-10-19T01:40:34.406Z,75.26
2022-10-19T01:45:48.342Z,75.23
2022-10-19T01:51:02.327Z,74.81
2022-10-19T01:56:13.836Z,74.82
2022-10-19T02:01:26.681Z,74.35
2022-10-19T02:06:34.875Z,74.35
2022-10-19T02:11:44.175Z,73.97
2022-10-19T02:17:03.432Z,73.77
2022-10-19T02:22:11.804Z,73.69
2022-10-19T02:27:20.597Z,74.00
2022-10-19T02:32:29.604Z,74.05
2022-10-19T02:37:37.705Z,73.89
2022-10-19T02:42:50.022Z,73.98
2022-10-19T02:48:01.739Z,74.04
2022-10-19T02:53:09.737Z,74.07
2022-10-19T02:58:17.718Z,74.15
2022-10-19T03:03:25.515Z,73.78
2022-10-19T03:08:33.547Z,73.99
2022-10-19T03:13:42.680Z,73.98
2022-10-19T03:18:51.914Z,74.08
2022-10-19T03:24:01.187Z,74.11
2022-10-19T03:29:09.273Z,74.06
2022-10-19T03:34:17.147Z,74.42
2022-10-19T03:39:25.201Z,74.33
2022-10-19T03:44:32.985Z,74.43
2022-10-19T03:49:40.389Z,74.64
2022-10-19T03:54:51.753Z,74.65
2022-10-19T03:59:59.611Z,74.52
2022-10-19T04:05:08.752Z,74.70
2022-10-19T04:10:16.742Z,74.70
2022-10-19T04:15:24.731Z,74.38
2022-10-19T04:20:31.955Z,74.37
2022-10-19T04:25:39.779Z,74.33
2022-10-19T04:30:47.577Z,74.68
2022-10-19T04:36:01.837Z,74.41
2022-10-19T04:41:11.688Z,74.54
2022-10-19T04:46:21.168Z,74.25
2022-10-19T04:51:29.858Z,74.35
2022-10-19T04:56:37.822Z,74.61
2022-10-19T05:01:47.260Z,74.55
2022-10-19T05:06:55.885Z,74.75
2022-10-19T05:12:04.220Z,74.82
2022-10-19T05:17:13.081Z,74.72
2022-10-19T05:22:21.156Z,75.13
2022-10-19T05:27:29.491Z,74.95
2022-10-19T05:32:37.510Z,75.25
2022-10-19T05:37:45.687Z,75.11
2022-10-19T05:42:53.571Z,75.07
2022-10-19T05:48:02.776Z,75.47
2022-10-19T05:53:10.846Z,75.51
2022-10-19T05:58:18.692Z,75.29
2022-10-19T06:03:27.891Z,75.47
2022-10-19T06:08:36.617Z,75.21
2022-10-19T06:13:46.511Z,75.38
2022-10-19T06:18:56.355Z,75.05
2022-10-19T06:24:06.829Z,75.13
2022-10-19T06:29:15.340Z,75.11
2022-10-19T06:34:23.571Z,75.31
2022-10-19T06:39:31.893Z,74.99
2022-10-19T06:44:38.873Z,75.30
2022-10-19T06:49:46.962Z,74.99
2022-10-19T06:54:54.964Z,75.16
2022-10-19T07:00:02.963Z,74.85
2022-10-19T07:05:11.790Z,74.90
2022-10-19T07:10:19.947Z,74.70
2022-10-19T07:15:27.984Z,74.93
2022-10-19T07:20:36.646Z,74.90
2022-10-19T07:25:44.925Z,74.83
2022-10-19T07:30:53.031Z,74.58
2022-10-19T07:36:07.006Z,74.49
2022-10-19T07:41:16.315Z,74.55
2022-10-19T07:46:26.558Z,74.17
2022-10-19T07:51:34.787Z,73.77
2022-10-19T07:56:42.919Z,73.88
2022-10-19T08:01:50.821Z,73.59
2022-10-19T08:06:58.719Z,73.80
2022-10-19T08:12:11.162Z,73.73
2022-10-19T08:17:22.842Z,73.35
2022-10-19T08:22:30.243Z,73.08
2022-10-19T08:27:38.171Z,72.23
2022-10-19T08:32:46.104Z,71.79
2022-10-19T08:37:54.076Z,71.56
2022-10-19T08:43:12.358Z,71.84
2022-10-19T08:48:29.335Z,72.20
2022-10-19T08:53:45.622Z,72.42
2022-10-19T08:59:07.389Z,72.53
2022-10-19T09:04:22.519Z,72.62
2022-10-19T09:09:34.757Z,72.83
2022-10-19T09:14:53.918Z,72.64
2022-10-19T09:20:03.529Z,72.85
2022-10-19T09:25:20.327Z,73.12
2022-10-19T09:30:27.835Z,73.35
2022-10-19T09:35:39.764Z,73.69
2022-10-19T09:40:48.696Z,73.96
2022-10-19T09:46:01.154Z,73.90
2022-10-19T09:51:16.837Z,74.19
2022-10-19T09:56:25.654Z,73.97
2022-10-19T10:01:41.853Z,74.05
2022-10-19T10:06:51.436Z,73.67
2022-10-19T10:12:01.036Z,73.78
2022-10-19T10:17:16.405Z,73.63
2022-10-19T10:22:32.982Z,73.77
2022-10-19T10:27:41.624Z,73.60
2022-10-19T10:32:53.034Z,73.04
2022-10-19T10:38:10.633Z,72.73
2022-10-19T10:43:22.471Z,72.22
2022-10-19T10:48:33.815Z,72.09
2022-10-19T10:53:43.629Z,72.08
2022-10-19T10:58:55.796Z,72.48
2022-10-19T11:04:02.415Z,72.52
2022-10-19T11:09:18.079Z,72.60
2022-10-19T11:14:34.754Z,72.71
2022-10-19T11:19:45.715Z,72.47
2022-10-19T11:25:05.594Z,72.41
2022-10-19T11:30:16.245Z,72.21
2022-10-19T11:35:38.023Z,72.03
2022-10-19T11:46:27.215Z,71.00
2022-10-19T11:51:41.196Z,70.71
2022-10-19T11:57:11.492Z,70.97
2022-10-19T12:02:42.153Z,70.93
2022-10-19T12:08:01.798Z,71.12
2022-10-19T12:13:13.921Z,71.09
2022-10-19T12:18:23.775Z,70.22
2022-10-19T12:23:34.713Z,69.88
2022-10-19T12:28:45.404Z,69.77
2022-10-19T12:34:00.850Z,69.97
2022-10-19T12:39:14.543Z,70.46
2022-10-19T12:44:39.406Z,70.78
2022-10-19T12:49:51.314Z,71.02
2022-10-19T12:55:12.017Z,70.79
2022-10-19T13:00:26.643Z,70.73
2022-10-19T13:05:35.612Z,70.98
2022-10-19T13:10:42.900Z,71.10
2022-10-19T13:15:58.051Z,71.04
2022-10-19T13:21:08.379Z,71.05
2022-10-19T13:26:35.059Z,70.70
2022-10-19T13:31:42.085Z,70.92
2022-10-19T13:42:29.718Z,70.81
2022-10-19T13:47:42.522Z,70.69
2022-10-19T13:53:08.780Z,70.99
2022-10-19T13:58:34.603Z,70.97
2022-10-19T14:03:57.475Z,71.00
2022-10-19T14:09:30.329Z,71.04
2022-10-19T14:14:43.857Z,70.88
2022-10-19T14:19:53.000Z,70.95
2022-10-19T14:25:08.093Z,70.79
2022-10-19T14:30:26.523Z,70.82
2022-10-19T14:35:37.369Z,70.63
2022-10-19T14:40:44.988Z,70.30
2022-10-19T14:46:13.555Z,70.16
2022-10-19T14:51:31.000Z,70.25
2022-10-19T14:56:54.390Z,70.42
2022-10-19T15:02:06.438Z,70.08
2022-10-19T15:07:22.440Z,70.14
2022-10-19T15:12:36.902Z,70.37
2022-10-19T15:17:54.307Z,70.36
2022-10-19T15:23:02.145Z,70.48
2022-10-19T15:28:36.151Z,70.55
2022-10-19T15:33:49.932Z,70.47
2022-10-19T15:39:24.649Z,70.67
2022-10-19T15:44:35.038Z,70.73
2022-10-19T15:50:01.131Z,70.73
2022-10-19T15:55:09.518Z,70.63
2022-10-19T16:00:20.664Z,70.40
2022-10-19T16:05:28.009Z,70.62
2022-10-19T16:10:35.211Z,70.64
2022-10-19T16:15:42.369Z,70.23
2022-10-19T16:20:49.762Z,70.17
2022-10-19T16:25:56.836Z,70.22
2022-10-19T16:31:04.227Z,70.37
2022-10-19T16:36:13.379Z,70.54
2022-10-19T16:41:20.559Z,70.39
2022-10-19T16:46:28.764Z,70.31
2022-10-19T16:51:40.294Z,70.32
2022-10-19T16:56:49.352Z,70.48
2022-10-19T17:01:56.884Z,70.53
2022-10-19T17:07:04.508Z,70.49
2022-10-19T17:12:11.999Z,70.45
2022-10-19T17:17:18.910Z,70.62
2022-10-19T17:22:25.984Z,70.55
2022-10-19T17:27:33.374Z,70.60
2022-10-19T17:32:40.897Z,70.63
2022-10-19T17:37:48.282Z,70.38
2022-10-19T17:42:55.889Z,70.61
2022-10-19T17:48:02.964Z,70.79
2022-10-19T17:53:10.237Z,70.41
2022-10-19T17:58:17.237Z,70.42
2022-10-19T18:03:24.777Z,70.80
2022-10-19T18:08:32.962Z,70.45
2022-10-19T18:13:40.959Z,70.61
2022-10-19T18:18:50.472Z,70.72
2022-10-19T18:24:00.005Z,70.98
2022-10-19T18:29:14.984Z,71.01
2022-10-19T18:34:23.915Z,71.13
2022-10-19T18:39:31.236Z,70.94
2022-10-19T18:44:38.371Z,71.17
2022-10-19T18:49:45.600Z,71.07
2022-10-19T18:54:52.854Z,71.33
2022-10-19T19:00:00.098Z,71.34
2022-10-19T19:05:07.781Z,71.13
2022-10-19T19:10:15.013Z,71.27
2022-10-19T19:15:22.212Z,71.03
2022-10-19T19:20:29.385Z,71.02
2022-10-19T19:25:36.469Z,70.99
2022-10-19T19:30:45.810Z,71.16
2022-10-19T19:35:52.951Z,71.14
2022-10-19T19:41:00.190Z,71.34
2022-10-19T19:46:11.422Z,71.13
2022-10-19T19:51:20.831Z,71.37
2022-10-19T19:56:29.162Z,71.38
2022-10-19T20:01:38.270Z,71.46
2022-10-19T20:06:45.786Z,71.46
2022-10-19T20:11:52.804Z,71.67
2022-10-19T20:17:00.086Z,71.73
2022-10-19T20:22:07.855Z,71.84
2022-10-19T20:27:14.970Z,71.78
2022-10-19T20:32:21.960Z,71.63
2022-10-19T20:37:30.569Z,72.05
2022-10-19T20:42:38.176Z,71.87
2022-10-19T20:47:45.515Z,71.83
2022-10-19T20:52:52.379Z,72.16
2022-10-19T20:57:59.492Z,71.75
2022-10-19T21:03:06.303Z,72.00
2022-10-19T21:08:16.043Z,72.00
2022-10-19T21:13:23.099Z,72.09
2022-10-19T21:18:30.067Z,72.03
2022-10-19T21:23:37.157Z,71.97
2022-10-19T21:28:47.144Z,72.04
2022-10-19T21:33:55.279Z,71.79
2022-10-19T21:39:02.345Z,71.95
2022-10-19T21:44:09.631Z,71.93
2022-10-19T21:49:17.082Z,72.36
2022-10-19T21:54:26.540Z,72.23
2022-10-19T21:59:34.061Z,72.49
2022-10-19T22:04:40.820Z,72.20
2022-10-19T22:09:48.106Z,72.37
2022-10-19T22:14:55.137Z,72.41
2022-10-19T22:20:02.185Z,72.29
2022-10-19T22:25:09.956Z,72.60
2022-10-19T22:30:17.299Z,72.72
2022-10-19T22:35:24.268Z,72.50
2022-10-19T22:40:31.203Z,72.65
2022-10-19T22:45:38.307Z,72.76
2022-10-19T22:50:45.304Z,72.84
2022-10-19T22:55:52.711Z,72.98
2022-10-19T23:01:06.187Z,72.75
2022-10-19T23:06:15.718Z,72.77
2022-10-19T23:11:22.770Z,72.72
2022-10-19T23:16:31.178Z,72.62
2022-10-19T23:21:38.127Z,72.62
2022-10-19T23:26:45.058Z,72.78
2022-10-19T23:31:52.340Z,72.90
2022-10-19T23:36:59.597Z,73.04
2022-10-19T23:42:06.940Z,73.18
2022-10-19T23:47:14.017Z,72.91
2022-10-19T23:52:20.847Z,72.88
2022-10-19T23:57:27.764Z,73.00
